Stations météo

réclame
Mon MeteoGroup
Lekeitio, Espagne (8024): Température de l'air & dewpoint: 19.04.2018 14:00:00 - 25.04.2018 14:00:00 (CEST)Lekeitio, Espagne (8024): Vitesse du vent & gusts: 19.04.2018 14:00:00 - 25.04.2018 14:00:00 (CEST)Lekeitio, Espagne (8024): Direction du vent: 19.04.2018 14:00:00 - 25.04.2018 14:00:00 (CEST)Lekeitio, Espagne (8024): Quantités de précipitations: 19.04.2018 14:00:00 - 25.04.2018 14:00:00 (CEST)
Date & Time tt [°C] td [°C] ff [km/h] ff [knt] fx [km/h] fx [knt] dd rr [mm]
25.04.2018 14:00:00 - - - - - - - -
25.04.2018 13:00:00 14,4 14,2 13 7 16 9 NW 0,0
25.04.2018 12:00:00 13,7 13,5 7 4 20 11 WNW 0,1
25.04.2018 11:00:00 13,9 13,7 11 6 16 8 NW 0,0
25.04.2018 10:00:00 13,5 13,3 8 4 14 8 WNW 0,2
25.04.2018 09:00:00 13,5 13,3 15 8 23 12 NW 0,0
25.04.2018 08:00:00 14,1 13,9 8 4 15 8 W -
25.04.2018 07:00:00 13,9 13,7 11 6 19 10 W 0,0
25.04.2018 06:00:00 13,3 13,1 14 8 19 11 W 0,0
25.04.2018 05:00:00 13,6 13,4 6 4 13 7 WNW 0,1
25.04.2018 04:00:00 13,7 13,5 10 5 14 8 NW 0,1
25.04.2018 03:00:00 14,1 13,9 13 7 16 9 NNW 0,0
25.04.2018 02:00:00 14,2 14,0 9 5 11 6 NW -
25.04.2018 01:00:00 14,4 14,2 5 3 12 6 WNW 0,0
25.04.2018 00:00:00 14,8 14,6 10 5 15 8 NW 0,0
24.04.2018 23:00:00 14,8 14,6 8 4 23 13 WNW 0,0
24.04.2018 22:00:00 14,8 14,6 23 12 31 17 NW 0,0
24.04.2018 21:00:00 14,9 14,7 26 14 33 18 NW 0,0
24.04.2018 20:00:00 15,4 15,2 21 12 28 15 NW -
24.04.2018 19:00:00 16,2 16,0 14 8 18 10 NNW 0,0
24.04.2018 18:00:00 17,1 16,6 10 5 14 8 NW 0,0
24.04.2018 17:00:00 18,7 17,5 5 3 9 5 NE 0,0
24.04.2018 16:00:00 20,2 18,7 5 3 14 8 ESE 0,0
24.04.2018 15:00:00 18,9 17,7 9 5 14 8 SE 0,0
24.04.2018 14:00:00 18,7 18,2 6 3 16 9 E -
24.04.2018 13:00:00 17,7 17,5 8 4 13 7 SE 0,0
24.04.2018 12:00:00 17,4 17,2 7 4 11 6 SE 0,0
24.04.2018 11:00:00 16,7 16,5 5 3 13 7 SE 0,0
24.04.2018 10:00:00 15,9 15,7 5 3 12 7 SE 0,0
24.04.2018 09:00:00 15,0 14,8 9 5 13 7 SE 0,0
24.04.2018 08:00:00 14,5 14,3 6 3 9 5 SSE -
24.04.2018 07:00:00 14,4 14,2 6 4 9 5 SSE 0,0
24.04.2018 06:00:00 14,4 14,2 5 3 12 7 SE 0,0
24.04.2018 05:00:00 14,3 14,1 7 4 10 5 SSE 0,0
24.04.2018 04:00:00 14,3 14,1 5 3 7 4 SE 0,0
24.04.2018 03:00:00 14,2 14,0 1 1 10 5 ENE 0,0
24.04.2018 02:00:00 14,5 14,3 1 1 6 4 ESE -
24.04.2018 01:00:00 14,6 14,4 0 0 5 3 N 0,0
24.04.2018 00:00:00 14,6 14,4 5 3 8 4 SE 0,0
23.04.2018 23:00:00 14,7 14,5 0 0 8 4 N 0,0
23.04.2018 22:00:00 14,6 14,4 1 1 9 5 E 0,0
23.04.2018 21:00:00 14,6 14,4 1 1 11 6 ESE 0,0
23.04.2018 20:00:00 14,9 14,7 1 1 10 5 E -
23.04.2018 19:00:00 14,8 14,6 6 3 12 7 NE 0,0
23.04.2018 18:00:00 15,2 15,0 3 1 9 5 NE 0,0
23.04.2018 17:00:00 15,3 15,1 5 3 11 6 NNE 0,0
23.04.2018 16:00:00 16,5 16,3 3 1 10 6 E 0,0
23.04.2018 15:00:00 16,4 16,2 3 1 7 4 ENE 0,0
23.04.2018 14:00:00 16,4 16,2 3 2 8 4 E -
23.04.2018 13:00:00 15,6 15,4 3 2 9 5 SE 0,0
23.04.2018 12:00:00 14,8 14,6 5 3 9 5 E 0,0
23.04.2018 11:00:00 13,9 13,7 10 6 16 8 NNW 0,0
23.04.2018 10:00:00 13,9 13,7 10 6 13 7 NW 0,0
23.04.2018 09:00:00 13,8 13,6 2 1 9 5 NW 0,1
23.04.2018 08:00:00 13,7 13,5 4 2 19 10 NNW -
23.04.2018 07:00:00 13,6 13,4 15 8 20 11 N 0,0
23.04.2018 06:00:00 13,7 13,5 12 7 18 10 NNW 0,0
23.04.2018 05:00:00 13,7 13,5 15 8 24 13 NW 0,0
23.04.2018 04:00:00 14,1 13,9 19 11 28 15 NW 0,0
23.04.2018 03:00:00 14,5 14,3 15 8 21 12 NW 0,0
23.04.2018 02:00:00 14,4 14,2 15 8 19 11 WNW -
23.04.2018 01:00:00 14,6 14,4 8 4 25 13 S 0,0
23.04.2018 00:00:00 14,7 14,5 4 2 13 7 SSE 0,0
22.04.2018 23:00:00 14,6 14,4 13 7 21 11 NW 0,2
22.04.2018 22:00:00 14,4 14,2 17 9 51 27 WNW 0,7
22.04.2018 21:00:00 14,9 14,7 25 13 41 22 NW 0,8
22.04.2018 20:00:00 15,5 15,3 22 12 26 14 NW -
22.04.2018 19:00:00 17,8 16,8 4 2 7 4 E 0,0
22.04.2018 18:00:00 19,9 15,5 3 2 14 7 ESE 0,0
22.04.2018 17:00:00 19,5 16,9 7 4 11 6 SE 0,0
22.04.2018 16:00:00 17,6 16,8 4 2 28 15 NW 0,0
22.04.2018 15:00:00 16,6 15,6 18 10 39 21 WNW 0,0
22.04.2018 14:00:00 16,6 14,6 29 16 40 22 WNW -
22.04.2018 13:00:00 17,5 13,2 23 12 36 19 W 0,0
22.04.2018 12:00:00 17,9 12,6 17 9 26 14 WNW 0,0
22.04.2018 11:00:00 17,0 13,1 9 5 13 7 WNW 0,0
22.04.2018 10:00:00 17,4 13,1 0 0 8 4 N 0,0
22.04.2018 09:00:00 17,1 12,6 8 4 24 13 WSW 0,0
22.04.2018 08:00:00 18,2 12,0 16 9 36 20 W -
22.04.2018 07:00:00 15,7 14,4 35 19 49 27 NW 0,0
22.04.2018 06:00:00 21,1 9,0 2 1 18 10 S 0,0
22.04.2018 05:00:00 21,3 9,2 5 3 23 12 W 0,0
22.04.2018 04:00:00 21,7 9,6 7 4 24 13 S 0,0
22.04.2018 03:00:00 21,1 9,7 14 8 26 14 S 0,0
22.04.2018 02:00:00 20,4 10,8 10 5 22 12 ESE -
22.04.2018 01:00:00 19,9 10,6 8 4 13 7 ESE 0,0
22.04.2018 00:00:00 19,4 10,1 11 6 20 11 SSE 0,0
21.04.2018 23:00:00 19,9 10,3 14 7 18 10 SSE 0,0
21.04.2018 22:00:00 20,3 9,3 9 5 14 8 S 0,0
21.04.2018 21:00:00 22,1 9,3 9 5 16 9 S 0,0
21.04.2018 20:00:00 23,0 9,1 11 6 18 10 SE -
21.04.2018 19:00:00 24,7 8,6 7 4 17 9 SSE 0,0
21.04.2018 18:00:00 25,3 7,9 10 5 21 12 SSE 0,0
21.04.2018 17:00:00 27,4 7,3 12 7 29 15 S 0,0
21.04.2018 16:00:00 26,4 6,4 14 8 36 19 SE 0,0
21.04.2018 15:00:00 26,7 6,2 26 14 49 26 SSE 0,0
21.04.2018 14:00:00 21,7 11,7 3 2 13 7 E -
21.04.2018 13:00:00 20,8 12,8 8 4 25 14 ESE 0,0
21.04.2018 12:00:00 20,4 10,8 9 5 22 12 SE 0,0
21.04.2018 11:00:00 20,2 9,8 5 3 18 10 E 0,0
21.04.2018 10:00:00 20,7 9,0 8 4 23 13 ESE 0,0
21.04.2018 09:00:00 18,7 8,7 17 9 32 17 SE 0,0
21.04.2018 08:00:00 17,8 7,8 26 14 37 20 SSE -
21.04.2018 07:00:00 17,7 7,7 20 11 29 16 SE 0,0
21.04.2018 06:00:00 17,6 7,9 18 10 31 17 SSE 0,0
21.04.2018 05:00:00 17,1 8,8 23 12 32 18 SSE 0,0
21.04.2018 04:00:00 17,9 8,7 22 12 28 15 SSE 0,0
21.04.2018 03:00:00 18,6 9,1 16 8 27 15 SSE 0,0
21.04.2018 02:00:00 18,8 9,3 16 9 35 19 SSE -
21.04.2018 01:00:00 18,4 10,8 25 13 32 17 SSE 0,0
21.04.2018 00:00:00 17,8 11,8 13 7 21 12 SSE 0,0
20.04.2018 23:00:00 17,8 11,8 14 8 23 12 SSE 0,0
20.04.2018 22:00:00 18,6 11,9 21 11 28 15 SE 0,0
20.04.2018 21:00:00 18,9 11,2 17 9 27 14 SE 0,0
20.04.2018 20:00:00 20,4 11,6 19 10 24 13 SE -
20.04.2018 19:00:00 21,5 12,1 18 10 26 14 SE 0,0
20.04.2018 18:00:00 21,2 12,9 16 9 24 13 SE 0,0
20.04.2018 17:00:00 19,5 16,0 16 9 24 13 SE 0,0
20.04.2018 16:00:00 17,5 17,0 14 8 19 10 SE 0,0
20.04.2018 15:00:00 17,4 16,9 8 5 15 8 ESE 0,0
20.04.2018 14:00:00 17,7 17,5 5 3 11 6 ESE -
20.04.2018 13:00:00 14,6 14,4 0 0 10 6 N 0,0
20.04.2018 12:00:00 14,7 14,5 10 6 16 9 NNW 0,0
20.04.2018 11:00:00 14,3 14,1 10 6 15 8 NW 0,0
20.04.2018 10:00:00 14,1 13,9 7 4 17 9 NW 0,0
20.04.2018 09:00:00 13,6 13,4 10 5 19 11 WNW 0,0
20.04.2018 08:00:00 13,5 13,3 12 7 26 14 WNW -
20.04.2018 07:00:00 13,5 13,3 20 11 29 16 WNW 0,0
20.04.2018 06:00:00 13,8 13,6 16 9 28 15 WNW 0,0
20.04.2018 05:00:00 14,1 13,9 20 11 27 14 WNW 0,0
20.04.2018 04:00:00 15,3 14,2 2 1 10 6 E 0,0
20.04.2018 03:00:00 18,4 10,5 8 5 23 13 S 0,0
20.04.2018 02:00:00 19,7 10,1 12 7 19 11 S -
20.04.2018 01:00:00 19,6 10,6 8 4 14 8 SE 0,0
20.04.2018 00:00:00 20,0 10,4 10 5 14 8 SE 0,0
19.04.2018 23:00:00 19,7 9,6 9 5 16 9 SSE 0,0
19.04.2018 22:00:00 20,2 9,8 8 4 24 13 ESE 0,0
19.04.2018 21:00:00 20,1 10,2 12 7 18 10 SE 0,0
19.04.2018 20:00:00 22,0 9,5 11 6 18 10 SE -
19.04.2018 19:00:00 22,8 11,2 12 7 22 12 SSE 0,0
19.04.2018 18:00:00 21,3 14,5 14 7 18 10 SE 0,0
19.04.2018 17:00:00 20,9 17,5 8 4 13 7 SE 0,0
19.04.2018 16:00:00 19,7 17,7 4 2 8 5 E 0,0
19.04.2018 15:00:00 17,7 16,9 4 2 8 5 E 0,0
19.04.2018 14:00:00 16,9 16,3 4 2 9 5 E -

tt = Température de l'air
td = dewpoint
ff = Vitesse du vent
fx = gusts
dd = Direction du vent
rr = Quantités de précipitations

stations d'obs. à proximité